Fort Scott, Kansas
Current Conditions -  °F | °C
As of 6:35 PM on Tuesday 25 Nov 2014 (Local Time) from KPTS Reporting Station
Clear Clear  
Wind Chill: 36°   Ceiling: Unl
Heat Index: 36°   Visibility: 10mi
Dew Point: 24°   Wind: 3mph
Humidity: 63%   Direction: 170°S
Pressure: 30.1"   Gusts: NA
Location:  37.84°N, 94.7°W
Report Text: KPTS 260035Z AUTO 17003KT 10SM CLR 02/M04 A3010 RMK AO2 T00201043
Loading
Personal Weather Stations






























Interactive Weather Map New forecast layout! Learn more

10-Day Weather Forecast

Advertisements
Track Severe Weather on mobile